createdAt,value
2023-11-16T00:01:28.641Z,100.00
2023-11-16T00:03:55.676Z,100.00
2023-11-16T00:06:22.772Z,100.00
2023-11-16T00:08:49.717Z,100.00
2023-11-16T00:11:18.299Z,100.00
2023-11-16T00:13:46.757Z,100.00
2023-11-16T00:16:15.877Z,100.00
2023-11-16T00:18:43.739Z,100.00
2023-11-16T00:21:10.837Z,100.00
2023-11-16T00:23:38.257Z,100.00
2023-11-16T00:26:05.197Z,100.00
2023-11-16T00:28:32.318Z,100.00
2023-11-16T00:30:59.319Z,100.00
2023-11-16T00:33:26.621Z,100.00
2023-11-16T00:35:58.779Z,100.00
2023-11-16T00:38:27.988Z,100.00
2023-11-16T00:40:57.718Z,100.00
2023-11-16T00:43:27.939Z,100.00
2023-11-16T00:45:56.402Z,100.00
2023-11-16T00:48:25.284Z,100.00
2023-11-16T00:50:52.112Z,100.00
2023-11-16T00:53:19.013Z,100.00
2023-11-16T00:55:46.001Z,100.00
2023-11-16T00:58:12.994Z,100.00
2023-11-16T01:00:40.089Z,100.00
2023-11-16T01:03:08.039Z,100.00
2023-11-16T01:05:35.245Z,100.00
2023-11-16T01:08:03.896Z,100.00
2023-11-16T01:10:31.145Z,100.00
2023-11-16T01:12:58.188Z,100.00
2023-11-16T01:15:25.788Z,100.00
2023-11-16T01:17:52.886Z,100.00
2023-11-16T01:20:20.324Z,100.00
2023-11-16T01:23:01.706Z,100.00
2023-11-16T01:25:31.318Z,100.00
2023-11-16T01:27:58.470Z,100.00
2023-11-16T01:30:25.997Z,100.00
2023-11-16T01:32:53.651Z,100.00
2023-11-16T01:35:22.082Z,100.00
2023-11-16T01:37:53.034Z,100.00
2023-11-16T01:40:20.487Z,100.00
2023-11-16T01:42:47.387Z,100.00
2023-11-16T01:45:26.728Z,100.00
2023-11-16T01:47:53.715Z,100.00
2023-11-16T01:50:21.873Z,100.00
2023-11-16T01:52:49.010Z,100.00
2023-11-16T01:55:16.963Z,100.00
2023-11-16T01:57:43.992Z,100.00
2023-11-16T02:00:15.511Z,100.00
2023-11-16T02:02:45.435Z,100.00
2023-11-16T02:05:12.330Z,100.00
2023-11-16T02:07:39.251Z,100.00
2023-11-16T02:10:06.380Z,100.00
2023-11-16T02:12:33.309Z,100.00
2023-11-16T02:15:00.150Z,100.00
2023-11-16T02:17:26.977Z,100.00
2023-11-16T02:19:54.945Z,100.00
2023-11-16T02:22:24.775Z,100.00
2023-11-16T02:24:51.509Z,100.00
2023-11-16T02:27:18.506Z,100.00
2023-11-16T02:29:46.737Z,100.00
2023-11-16T02:32:13.670Z,100.00
2023-11-16T02:34:40.722Z,100.00
2023-11-16T02:37:07.662Z,100.00
2023-11-16T02:39:34.514Z,100.00
2023-11-16T02:42:03.151Z,100.00
2023-11-16T02:44:31.255Z,100.00
2023-11-16T02:46:59.619Z,100.00
2023-11-16T02:49:26.600Z,100.00
2023-11-16T02:51:53.379Z,100.00
2023-11-16T02:54:20.149Z,100.00
2023-11-16T02:56:47.248Z,100.00
2023-11-16T02:59:14.142Z,100.00
2023-11-16T03:01:41.584Z,100.00
2023-11-16T03:04:08.420Z,100.00
2023-11-16T03:06:35.620Z,100.00
2023-11-16T03:09:03.865Z,100.00
2023-11-16T03:11:31.027Z,100.00
2023-11-16T03:13:58.302Z,100.00
2023-11-16T03:16:26.612Z,100.00
2023-11-16T03:18:53.457Z,100.00
2023-11-16T03:21:20.368Z,100.00
2023-11-16T03:23:47.170Z,100.00
2023-11-16T03:26:14.028Z,100.00
2023-11-16T03:28:42.617Z,100.00
2023-11-16T03:31:11.656Z,100.00
2023-11-16T03:33:40.074Z,100.00
2023-11-16T03:36:07.664Z,100.00
2023-11-16T03:38:35.787Z,100.00
2023-11-16T03:41:02.596Z,100.00
2023-11-16T03:43:29.585Z,100.00
2023-11-16T03:45:56.478Z,100.00
2023-11-16T03:48:23.356Z,100.00
2023-11-16T03:50:50.279Z,100.00
2023-11-16T03:53:17.173Z,100.00
2023-11-16T03:55:44.297Z,100.00
2023-11-16T03:58:11.090Z,100.00
2023-11-16T04:00:38.828Z,100.00
2023-11-16T04:03:05.854Z,100.00
2023-11-16T04:05:34.002Z,100.00
2023-11-16T04:08:01.324Z,100.00
2023-11-16T04:10:28.163Z,100.00
2023-11-16T04:12:55.328Z,100.00
2023-11-16T04:15:23.404Z,100.00
2023-11-16T04:17:50.700Z,100.00
2023-11-16T04:20:17.669Z,100.00
2023-11-16T04:22:45.309Z,100.00
2023-11-16T04:25:28.920Z,100.00
2023-11-16T04:27:59.777Z,100.00
2023-11-16T04:30:28.872Z,100.00
2023-11-16T04:32:56.371Z,100.00
2023-11-16T04:35:23.135Z,100.00
2023-11-16T04:37:51.002Z,100.00
2023-11-16T04:40:17.857Z,100.00
2023-11-16T04:42:45.123Z,100.00
2023-11-16T04:45:12.627Z,100.00
2023-11-16T04:47:44.898Z,100.00
2023-11-16T04:50:14.372Z,100.00
2023-11-16T04:52:41.356Z,100.00
2023-11-16T04:55:10.225Z,100.00
2023-11-16T04:57:39.186Z,100.00
2023-11-16T05:00:14.145Z,100.00
2023-11-16T05:02:41.352Z,100.00
2023-11-16T05:05:08.499Z,100.00
2023-11-16T05:07:35.533Z,100.00
2023-11-16T05:10:02.550Z,100.00
2023-11-16T05:12:30.182Z,100.00
2023-11-16T05:14:57.041Z,100.00
2023-11-16T05:17:24.146Z,100.00
2023-11-16T05:19:50.979Z,100.00
2023-11-16T05:22:18.081Z,100.00
2023-11-16T05:24:45.043Z,100.00
2023-11-16T05:27:12.281Z,100.00
2023-11-16T05:29:39.192Z,100.00
2023-11-16T05:32:07.339Z,100.00
2023-11-16T05:34:34.272Z,100.00
2023-11-16T05:37:01.133Z,100.00
2023-11-16T05:39:28.251Z,100.00
2023-11-16T05:41:55.021Z,100.00
2023-11-16T05:44:23.058Z,100.00
2023-11-16T05:46:50.313Z,100.00
2023-11-16T05:49:17.200Z,100.00
2023-11-16T05:51:44.163Z,100.00
2023-11-16T05:54:11.071Z,100.00
2023-11-16T05:56:48.818Z,100.00
2023-11-16T05:59:15.780Z,100.00
2023-11-16T06:01:46.238Z,100.00
2023-11-16T06:04:13.356Z,100.00
2023-11-16T06:06:40.264Z,100.00
2023-11-16T06:09:07.153Z,100.00
2023-11-16T06:11:33.921Z,100.00
2023-11-16T06:14:01.156Z,100.00
2023-11-16T06:16:28.171Z,100.00
2023-11-16T06:18:55.211Z,100.00
2023-11-16T06:21:22.391Z,100.00
2023-11-16T06:23:49.438Z,100.00
2023-11-16T06:26:16.343Z,100.00
2023-11-16T06:28:43.273Z,100.00
2023-11-16T06:31:10.514Z,100.00
2023-11-16T06:33:37.579Z,100.00
2023-11-16T06:36:04.903Z,100.00
2023-11-16T06:38:31.725Z,100.00
2023-11-16T06:40:59.435Z,100.00
2023-11-16T06:43:27.058Z,100.00
2023-11-16T06:45:55.806Z,100.00
2023-11-16T06:48:22.618Z,100.00
2023-11-16T06:50:51.355Z,100.00
2023-11-16T06:53:18.264Z,100.00
2023-11-16T06:55:45.027Z,100.00
2023-11-16T06:58:12.730Z,100.00
2023-11-16T07:00:39.750Z,100.00
2023-11-16T07:03:07.183Z,100.00
2023-11-16T07:05:36.191Z,100.00
2023-11-16T07:08:04.514Z,100.00
2023-11-16T07:10:31.523Z,100.00
2023-11-16T07:13:02.392Z,100.00
2023-11-16T07:15:29.314Z,100.00
2023-11-16T07:17:56.351Z,100.00
2023-11-16T07:20:23.391Z,100.00
2023-11-16T07:22:50.300Z,100.00
2023-11-16T07:25:21.168Z,100.00
2023-11-16T07:27:50.654Z,100.00
2023-11-16T07:30:17.813Z,100.00
2023-11-16T07:32:45.431Z,100.00
2023-11-16T07:35:18.048Z,100.00
2023-11-16T07:37:45.715Z,100.00
2023-11-16T07:40:13.649Z,100.00
2023-11-16T07:42:40.845Z,100.00
2023-11-16T07:45:11.664Z,100.00
2023-11-16T07:47:42.980Z,100.00
2023-11-16T07:50:11.865Z,100.00
2023-11-16T07:52:45.352Z,100.00
2023-11-16T07:55:16.782Z,100.00
2023-11-16T07:57:48.272Z,100.00
2023-11-16T08:00:22.851Z,100.00
2023-11-16T08:03:08.519Z,100.00
2023-11-16T08:05:37.704Z,100.00
2023-11-16T08:08:07.861Z,100.00
2023-11-16T08:10:34.785Z,100.00
2023-11-16T08:13:01.761Z,100.00
2023-11-16T08:15:28.603Z,100.00
2023-11-16T08:17:55.507Z,100.00
2023-11-16T08:20:25.093Z,100.00
2023-11-16T08:22:52.648Z,100.00
2023-11-16T08:25:22.804Z,100.00
2023-11-16T08:27:50.569Z,100.00
2023-11-16T08:30:18.115Z,100.00
2023-11-16T08:32:46.678Z,100.00
2023-11-16T08:35:16.262Z,100.00
2023-11-16T08:37:43.508Z,100.00
2023-11-16T08:40:10.527Z,100.00
2023-11-16T08:42:47.700Z,100.00
2023-11-16T08:45:19.240Z,100.00
2023-11-16T08:47:47.581Z,100.00
2023-11-16T08:50:16.734Z,100.00
2023-11-16T08:52:46.689Z,100.00
2023-11-16T08:55:14.215Z,100.00
2023-11-16T08:57:48.162Z,100.00
2023-11-16T09:00:34.066Z,100.00
2023-11-16T09:03:02.084Z,100.00
2023-11-16T09:05:29.803Z,100.00
2023-11-16T09:07:56.743Z,100.00
2023-11-16T09:10:24.824Z,100.00
2023-11-16T09:12:55.867Z,100.00
2023-11-16T09:15:23.146Z,100.00
2023-11-16T09:17:50.681Z,100.00
2023-11-16T09:20:23.468Z,100.00
2023-11-16T09:22:51.191Z,100.00
2023-11-16T09:25:24.480Z,100.00
2023-11-16T09:27:55.013Z,100.00
2023-11-16T09:30:23.089Z,100.00
2023-11-16T09:32:56.550Z,100.00
2023-11-16T09:35:23.998Z,100.00
2023-11-16T09:37:52.826Z,100.00
2023-11-16T09:40:24.784Z,100.00
2023-11-16T09:43:01.054Z,100.00
2023-11-16T09:45:28.712Z,100.00
2023-11-16T09:48:01.809Z,100.00
2023-11-16T09:50:29.222Z,100.00
2023-11-16T09:52:57.050Z,100.00
2023-11-16T09:55:24.454Z,100.00
2023-11-16T09:57:55.921Z,100.00
2023-11-16T10:00:24.365Z,100.00
2023-11-16T10:02:54.004Z,100.00
2023-11-16T10:05:30.621Z,100.00
2023-11-16T10:07:58.725Z,100.00
2023-11-16T10:10:34.120Z,100.00
2023-11-16T10:13:01.218Z,100.00
2023-11-16T10:15:28.314Z,100.00
2023-11-16T10:17:56.490Z,99.98
2023-11-16T10:20:24.486Z,99.87
2023-11-16T10:22:54.674Z,99.97
2023-11-16T10:25:23.788Z,98.76
2023-11-16T10:27:50.734Z,97.29
2023-11-16T10:30:19.020Z,96.47
2023-11-16T10:32:49.830Z,94.47
2023-11-16T10:35:18.397Z,92.93
2023-11-16T10:37:45.514Z,92.68
2023-11-16T10:40:13.424Z,91.19
2023-11-16T10:42:43.775Z,91.51
2023-11-16T10:45:15.497Z,91.01
2023-11-16T10:47:43.979Z,89.35
2023-11-16T10:50:11.442Z,89.32
2023-11-16T10:52:39.835Z,87.46
2023-11-16T10:55:14.281Z,90.28
2023-11-16T10:57:41.427Z,86.88
2023-11-16T11:00:17.304Z,85.01
2023-11-16T11:02:46.247Z,86.11
2023-11-16T11:05:15.871Z,86.18
2023-11-16T11:07:57.610Z,87.08
2023-11-16T11:10:26.754Z,85.92
2023-11-16T11:13:00.921Z,85.54
2023-11-16T11:15:31.974Z,84.86
2023-11-16T11:17:59.670Z,84.71
2023-11-16T11:20:37.469Z,83.04
2023-11-16T11:23:15.609Z,83.35
2023-11-16T11:25:42.958Z,83.35
2023-11-16T11:28:11.895Z,83.12
2023-11-16T11:30:49.120Z,82.08
2023-11-16T11:33:23.020Z,80.35
2023-11-16T11:35:53.013Z,78.30
2023-11-16T11:38:27.637Z,79.69
2023-11-16T11:40:58.603Z,79.75
2023-11-16T11:43:25.578Z,79.35
2023-11-16T11:45:53.087Z,78.09
2023-11-16T11:48:23.606Z,78.29
2023-11-16T11:50:55.738Z,78.90
2023-11-16T11:53:27.904Z,78.41
2023-11-16T11:55:55.776Z,79.09
2023-11-16T11:58:22.719Z,78.85
2023-11-16T12:00:50.644Z,78.07
2023-11-16T12:03:21.186Z,78.52
2023-11-16T12:06:03.080Z,79.31
2023-11-16T12:08:40.088Z,78.32
2023-11-16T12:11:11.324Z,77.85
2023-11-16T12:13:39.332Z,78.37
2023-11-16T12:16:07.068Z,79.08
2023-11-16T12:18:38.474Z,79.58
2023-11-16T12:21:11.235Z,79.86
2023-11-16T12:23:54.308Z,80.37
2023-11-16T12:26:28.401Z,79.51
2023-11-16T12:28:56.151Z,79.47
2023-11-16T12:31:27.260Z,79.74
2023-11-16T12:33:57.900Z,78.61
2023-11-16T12:36:25.949Z,77.65
2023-11-16T12:38:53.718Z,78.31
2023-11-16T12:41:23.766Z,78.21
2023-11-16T12:43:51.883Z,77.73
2023-11-16T12:46:20.120Z,78.12
2023-11-16T12:48:46.989Z,78.82
2023-11-16T12:51:19.685Z,78.10
2023-11-16T12:53:46.614Z,77.99
2023-11-16T12:56:15.788Z,78.88
2023-11-16T12:58:43.636Z,78.96
2023-11-16T13:01:14.176Z,78.07
2023-11-16T13:03:49.543Z,78.20
2023-11-16T13:06:19.777Z,77.34
2023-11-16T13:08:47.673Z,77.26
2023-11-16T13:11:14.675Z,76.94
2023-11-16T13:13:42.030Z,76.54
2023-11-16T13:16:09.490Z,76.64
2023-11-16T13:18:36.788Z,76.58
2023-11-16T13:21:10.198Z,76.32
2023-11-16T13:23:38.458Z,76.45
2023-11-16T13:26:05.221Z,76.35
2023-11-16T13:28:33.384Z,76.77
2023-11-16T13:31:01.704Z,76.91
2023-11-16T13:33:28.680Z,76.22
2023-11-16T13:35:56.060Z,76.14
2023-11-16T13:38:23.954Z,76.05
2023-11-16T13:40:51.051Z,76.05
2023-11-16T13:43:18.242Z,76.54
2023-11-16T13:45:45.704Z,77.03
2023-11-16T13:48:13.421Z,77.11
2023-11-16T13:50:42.377Z,76.78
2023-11-16T13:53:10.487Z,77.35
2023-11-16T13:55:37.266Z,77.11
2023-11-16T13:58:04.558Z,77.43
2023-11-16T14:00:32.609Z,76.98
2023-11-16T14:02:59.813Z,77.28
2023-11-16T14:05:26.813Z,77.71
2023-11-16T14:07:54.158Z,77.39
2023-11-16T14:10:24.609Z,77.11
2023-11-16T14:12:55.207Z,77.59
2023-11-16T14:15:22.949Z,77.39
2023-11-16T14:17:50.001Z,77.91
2023-11-16T14:20:17.441Z,78.12
2023-11-16T14:22:45.275Z,78.11
2023-11-16T14:25:12.179Z,78.33
2023-11-16T14:27:39.269Z,78.48
2023-11-16T14:30:06.922Z,78.59
2023-11-16T14:32:34.533Z,78.75
2023-11-16T14:35:14.444Z,78.16
2023-11-16T14:37:46.988Z,78.26
2023-11-16T14:40:14.449Z,78.89
2023-11-16T14:42:41.508Z,79.13
2023-11-16T14:45:08.992Z,79.31
2023-11-16T14:47:39.701Z,79.63
2023-11-16T14:50:13.285Z,79.59
2023-11-16T14:52:40.144Z,79.18
2023-11-16T14:55:07.499Z,78.94
2023-11-16T14:57:34.978Z,79.06
2023-11-16T15:00:01.985Z,79.64
2023-11-16T15:02:28.928Z,80.44
2023-11-16T15:05:02.727Z,80.66
2023-11-16T15:07:35.474Z,81.44
2023-11-16T15:10:05.660Z,82.02
2023-11-16T15:12:34.067Z,82.28
2023-11-16T15:15:01.132Z,82.64
2023-11-16T15:17:28.248Z,83.04
2023-11-16T15:19:55.256Z,83.33
2023-11-16T15:22:22.668Z,83.75
2023-11-16T15:24:50.352Z,83.86
2023-11-16T15:27:17.342Z,83.70
2023-11-16T15:29:46.345Z,84.01
2023-11-16T15:32:19.584Z,84.07
2023-11-16T15:34:46.619Z,84.49
2023-11-16T15:37:13.628Z,84.72
2023-11-16T15:39:40.669Z,84.37
2023-11-16T15:42:07.707Z,84.25
2023-11-16T15:44:34.643Z,84.30
2023-11-16T15:47:01.678Z,84.25
2023-11-16T15:49:29.515Z,83.90
2023-11-16T15:51:56.641Z,84.21
2023-11-16T15:54:23.616Z,84.61
2023-11-16T15:56:53.543Z,84.95
2023-11-16T15:59:20.607Z,85.24
2023-11-16T16:01:48.318Z,85.27
2023-11-16T16:04:15.591Z,85.45
2023-11-16T16:06:43.053Z,85.81
2023-11-16T16:09:10.225Z,86.15
2023-11-16T16:11:37.238Z,86.16
2023-11-16T16:14:04.245Z,86.17
2023-11-16T16:16:32.690Z,86.22
2023-11-16T16:19:01.756Z,86.60
2023-11-16T16:21:29.007Z,86.93
2023-11-16T16:23:56.070Z,86.66
2023-11-16T16:26:23.127Z,86.97
2023-11-16T16:28:49.979Z,87.29
2023-11-16T16:31:21.832Z,87.37
2023-11-16T16:33:49.453Z,87.74
2023-11-16T16:36:16.350Z,87.67
2023-11-16T16:38:43.264Z,87.91
2023-11-16T16:41:13.143Z,88.06
2023-11-16T16:43:43.079Z,88.17
2023-11-16T16:46:17.847Z,88.16
2023-11-16T16:48:45.855Z,88.13
2023-11-16T16:51:13.074Z,88.26
2023-11-16T16:53:40.013Z,88.58
2023-11-16T16:56:07.110Z,88.53
2023-11-16T16:58:34.246Z,88.79
2023-11-16T17:01:01.143Z,88.97
2023-11-16T17:03:28.202Z,88.94
2023-11-16T17:05:55.321Z,89.24
2023-11-16T17:08:22.215Z,89.64
2023-11-16T17:10:49.035Z,89.93
2023-11-16T17:13:15.977Z,90.10
2023-11-16T17:15:44.453Z,90.26
2023-11-16T17:18:11.443Z,90.09
2023-11-16T17:20:38.715Z,90.40
2023-11-16T17:23:08.446Z,90.67
2023-11-16T17:25:35.392Z,90.94
2023-11-16T17:28:02.311Z,91.27
2023-11-16T17:30:29.236Z,91.90
2023-11-16T17:32:56.442Z,91.80
2023-11-16T17:35:23.404Z,91.72
2023-11-16T17:37:51.627Z,91.71
2023-11-16T17:40:26.251Z,91.61
2023-11-16T17:42:53.472Z,91.43
2023-11-16T17:45:24.529Z,91.62
2023-11-16T17:47:53.481Z,91.72
2023-11-16T17:50:21.378Z,92.30
2023-11-16T17:52:51.040Z,92.79
2023-11-16T17:55:19.897Z,92.86
2023-11-16T17:57:47.700Z,93.16
2023-11-16T18:00:15.837Z,93.45
2023-11-16T18:02:42.995Z,93.53
2023-11-16T18:05:13.613Z,93.91
2023-11-16T18:07:42.728Z,94.36
2023-11-16T18:10:10.489Z,94.63
2023-11-16T18:12:40.897Z,95.16
2023-11-16T18:15:08.049Z,95.53
2023-11-16T18:17:35.324Z,95.77
2023-11-16T18:20:05.308Z,95.93
2023-11-16T18:22:32.955Z,96.38
2023-11-16T18:25:01.478Z,96.48
2023-11-16T18:27:29.143Z,97.00
2023-11-16T18:29:56.038Z,97.12
2023-11-16T18:32:23.459Z,97.02
2023-11-16T18:34:50.719Z,97.10
2023-11-16T18:37:17.897Z,97.24
2023-11-16T18:39:44.893Z,97.38
2023-11-16T18:42:13.251Z,97.48
2023-11-16T18:44:40.635Z,97.44
2023-11-16T18:47:08.388Z,97.43
2023-11-16T18:49:35.783Z,97.43
2023-11-16T18:52:03.232Z,97.54
2023-11-16T18:54:31.743Z,97.40
2023-11-16T18:56:59.451Z,97.66
2023-11-16T18:59:26.539Z,98.23
2023-11-16T19:01:56.999Z,98.25
2023-11-16T19:04:25.464Z,98.51
2023-11-16T19:06:52.383Z,98.53
2023-11-16T19:09:22.648Z,98.34
2023-11-16T19:11:51.312Z,97.91
2023-11-16T19:14:20.570Z,98.03
2023-11-16T19:16:51.692Z,98.16
2023-11-16T19:19:18.474Z,98.69
2023-11-16T19:21:45.517Z,98.59
2023-11-16T19:24:13.455Z,98.42
2023-11-16T19:26:41.577Z,98.27
2023-11-16T19:29:12.108Z,98.60
2023-11-16T19:31:39.301Z,99.18
2023-11-16T19:34:07.116Z,99.03
2023-11-16T19:36:35.520Z,99.12
2023-11-16T19:39:08.028Z,99.18
2023-11-16T19:41:42.730Z,99.10
2023-11-16T19:44:09.716Z,99.40
2023-11-16T19:46:36.859Z,99.37
2023-11-16T19:49:04.448Z,99.61
2023-11-16T19:51:32.660Z,99.77
2023-11-16T19:54:03.887Z,99.99
2023-11-16T19:56:30.708Z,99.92
2023-11-16T19:58:58.487Z,99.55
2023-11-16T20:01:29.119Z,99.40
2023-11-16T20:03:56.708Z,99.58
2023-11-16T20:06:25.404Z,100.00
2023-11-16T20:08:52.449Z,100.00
2023-11-16T20:11:19.316Z,100.00
2023-11-16T20:13:46.328Z,100.00
2023-11-16T20:16:15.166Z,100.00
2023-11-16T20:18:46.332Z,100.00
2023-11-16T20:21:13.548Z,100.00
2023-11-16T20:23:41.764Z,100.00
2023-11-16T20:26:12.001Z,100.00
2023-11-16T20:28:39.333Z,100.00
2023-11-16T20:31:06.180Z,100.00
2023-11-16T20:33:33.373Z,100.00
2023-11-16T20:36:01.511Z,100.00
2023-11-16T20:38:28.413Z,100.00
2023-11-16T20:40:55.336Z,100.00
2023-11-16T20:43:22.468Z,100.00
2023-11-16T20:45:49.388Z,100.00
2023-11-16T20:48:16.408Z,100.00
2023-11-16T20:50:43.630Z,100.00
2023-11-16T20:53:12.606Z,100.00
2023-11-16T20:55:39.557Z,100.00
2023-11-16T20:58:06.434Z,100.00
2023-11-16T21:00:33.356Z,100.00
2023-11-16T21:03:00.408Z,100.00
2023-11-16T21:05:29.188Z,100.00
2023-11-16T21:07:56.145Z,100.00
2023-11-16T21:10:23.550Z,100.00
2023-11-16T21:12:50.560Z,100.00
2023-11-16T21:15:19.386Z,100.00
2023-11-16T21:17:46.275Z,100.00
2023-11-16T21:20:13.792Z,100.00
2023-11-16T21:22:42.071Z,100.00
2023-11-16T21:25:10.129Z,100.00
2023-11-16T21:27:37.666Z,100.00
2023-11-16T21:30:10.398Z,100.00
2023-11-16T21:32:38.495Z,100.00
2023-11-16T21:35:13.411Z,100.00
2023-11-16T21:37:46.677Z,100.00
2023-11-16T21:40:14.244Z,100.00
2023-11-16T21:42:42.088Z,100.00
2023-11-16T21:45:10.687Z,100.00
2023-11-16T21:47:39.358Z,100.00
2023-11-16T21:50:06.756Z,100.00
2023-11-16T21:52:33.770Z,100.00
2023-11-16T21:55:00.660Z,100.00
2023-11-16T21:57:27.600Z,100.00
2023-11-16T21:59:55.793Z,100.00
2023-11-16T22:02:22.809Z,100.00
2023-11-16T22:04:49.875Z,100.00
2023-11-16T22:07:16.876Z,100.00
2023-11-16T22:09:43.841Z,100.00
2023-11-16T22:12:10.671Z,100.00
2023-11-16T22:14:37.428Z,100.00
2023-11-16T22:17:05.125Z,100.00
2023-11-16T22:19:32.930Z,100.00
2023-11-16T22:21:59.805Z,100.00
2023-11-16T22:24:26.651Z,100.00
2023-11-16T22:26:53.632Z,100.00
2023-11-16T22:29:20.544Z,100.00
2023-11-16T22:31:47.600Z,100.00
2023-11-16T22:34:14.552Z,100.00
2023-11-16T22:36:41.585Z,100.00
2023-11-16T22:39:09.907Z,100.00
2023-11-16T22:41:36.859Z,100.00
2023-11-16T22:44:03.793Z,100.00
2023-11-16T22:46:30.981Z,100.00
2023-11-16T22:48:59.055Z,100.00
2023-11-16T22:51:26.453Z,100.00
2023-11-16T22:53:53.344Z,100.00
2023-11-16T22:56:20.097Z,100.00
2023-11-16T22:58:46.933Z,100.00
2023-11-16T23:01:14.243Z,100.00
2023-11-16T23:03:41.723Z,100.00
2023-11-16T23:06:08.809Z,100.00
2023-11-16T23:08:35.689Z,100.00
2023-11-16T23:11:02.494Z,100.00
2023-11-16T23:13:29.587Z,100.00
2023-11-16T23:15:56.641Z,100.00
2023-11-16T23:18:23.497Z,100.00
2023-11-16T23:20:50.377Z,100.00
2023-11-16T23:23:17.990Z,100.00
2023-11-16T23:25:46.340Z,100.00
2023-11-16T23:28:17.176Z,100.00
2023-11-16T23:30:44.218Z,100.00
2023-11-16T23:33:11.426Z,100.00
2023-11-16T23:35:38.370Z,100.00
2023-11-16T23:38:06.685Z,100.00
2023-11-16T23:40:33.737Z,100.00
2023-11-16T23:43:00.826Z,100.00
2023-11-16T23:45:27.800Z,100.00
2023-11-16T23:47:56.542Z,100.00
2023-11-16T23:50:59.674Z,100.00
2023-11-16T23:53:28.429Z,100.00
2023-11-16T23:55:55.482Z,100.00
2023-11-16T23:58:22.524Z,100.00
